createdAt,value
2018-12-14T00:02:20.894Z,99.90
2018-12-14T00:04:48.326Z,99.90
2018-12-14T00:07:15.857Z,99.90
2018-12-14T00:09:43.427Z,99.90
2018-12-14T00:12:10.838Z,99.90
2018-12-14T00:14:38.330Z,99.90
2018-12-14T00:17:05.768Z,99.90
2018-12-14T00:19:33.226Z,99.90
2018-12-14T00:22:00.637Z,99.90
2018-12-14T00:24:28.158Z,99.90
2018-12-14T00:26:55.700Z,99.90
2018-12-14T00:29:23.179Z,99.90
2018-12-14T00:31:50.599Z,99.90
2018-12-14T00:34:18.187Z,99.90
2018-12-14T00:36:45.614Z,99.90
2018-12-14T00:39:13.080Z,99.90
2018-12-14T00:41:41.281Z,99.90
2018-12-14T00:44:08.747Z,99.90
2018-12-14T00:46:38.115Z,99.90
2018-12-14T00:49:05.639Z,99.90
2018-12-14T00:51:33.160Z,99.90
2018-12-14T00:54:00.624Z,99.90
2018-12-14T00:56:28.070Z,99.90
2018-12-14T00:58:55.514Z,99.90
2018-12-14T01:01:22.932Z,99.90
2018-12-14T01:03:50.411Z,99.90
2018-12-14T01:06:17.851Z,99.90
2018-12-14T01:08:45.300Z,99.90
2018-12-14T01:11:12.819Z,99.90
2018-12-14T01:13:41.199Z,99.90
2018-12-14T01:16:08.643Z,99.90
2018-12-14T01:18:36.057Z,99.90
2018-12-14T01:21:03.574Z,99.90
2018-12-14T01:23:31.000Z,99.90
2018-12-14T01:25:58.430Z,99.90
2018-12-14T01:28:25.854Z,99.90
2018-12-14T01:30:53.307Z,99.90
2018-12-14T01:33:20.779Z,99.90
2018-12-14T01:35:48.225Z,99.90
2018-12-14T01:38:15.677Z,99.90
2018-12-14T01:40:43.100Z,99.90
2018-12-14T01:43:10.563Z,99.90
2018-12-14T01:45:38.001Z,99.90
2018-12-14T01:48:05.445Z,99.90
2018-12-14T01:50:32.902Z,99.90
2018-12-14T01:53:00.418Z,99.90
2018-12-14T01:55:27.883Z,99.90
2018-12-14T01:57:55.390Z,99.90
2018-12-14T02:00:23.279Z,99.90
2018-12-14T02:02:50.757Z,99.90
2018-12-14T02:05:18.193Z,99.90
2018-12-14T02:07:45.698Z,99.90
2018-12-14T02:10:13.122Z,99.90
2018-12-14T02:12:41.430Z,99.90
2018-12-14T02:15:08.970Z,99.90
2018-12-14T02:17:36.446Z,99.90
2018-12-14T02:20:04.636Z,99.90
2018-12-14T02:22:32.061Z,99.90
2018-12-14T02:24:59.507Z,99.90
2018-12-14T02:27:27.090Z,99.90
2018-12-14T02:29:54.506Z,99.90
2018-12-14T02:32:21.925Z,99.90
2018-12-14T02:34:49.505Z,99.90
2018-12-14T02:37:17.017Z,99.90
2018-12-14T02:39:44.458Z,99.90
2018-12-14T02:42:19.130Z,99.90
2018-12-14T02:44:41.655Z,99.90
2018-12-14T02:47:09.111Z,99.90
2018-12-14T02:49:36.593Z,99.90
2018-12-14T02:52:04.009Z,99.90
2018-12-14T02:54:31.467Z,99.90
2018-12-14T02:56:58.981Z,99.90
2018-12-14T02:59:26.538Z,99.90
2018-12-14T03:01:54.044Z,99.90
2018-12-14T03:04:21.494Z,99.90
2018-12-14T03:06:48.930Z,99.90
2018-12-14T03:09:16.428Z,99.90
2018-12-14T03:11:43.882Z,99.90
2018-12-14T03:14:11.337Z,99.90
2018-12-14T03:16:39.646Z,99.90
2018-12-14T03:19:07.148Z,99.90
2018-12-14T03:21:34.607Z,99.90
2018-12-14T03:24:02.135Z,99.90
2018-12-14T03:26:29.667Z,99.90
2018-12-14T03:28:57.089Z,99.90
2018-12-14T03:31:24.575Z,99.90
2018-12-14T03:33:52.132Z,99.90
2018-12-14T03:36:19.568Z,99.90
2018-12-14T03:38:46.985Z,99.90
2018-12-14T03:41:14.455Z,99.90
2018-12-14T03:43:41.972Z,99.90
2018-12-14T03:46:09.408Z,99.90
2018-12-14T03:48:36.876Z,99.90
2018-12-14T03:51:04.339Z,99.90
2018-12-14T03:53:31.800Z,99.90
2018-12-14T03:55:59.228Z,99.90
2018-12-14T03:58:26.779Z,99.90
2018-12-14T04:00:54.197Z,99.90
2018-12-14T04:03:21.694Z,99.90
2018-12-14T04:05:49.284Z,99.90
2018-12-14T04:08:16.704Z,99.90
2018-12-14T04:10:44.130Z,99.90
2018-12-14T04:13:11.552Z,99.90
2018-12-14T04:15:39.007Z,99.90
2018-12-14T04:18:06.451Z,99.90
2018-12-14T04:20:33.985Z,99.90
2018-12-14T04:23:01.427Z,99.90
2018-12-14T04:25:29.144Z,99.90
2018-12-14T04:27:56.563Z,99.90
2018-12-14T04:30:24.013Z,99.90
2018-12-14T04:32:51.516Z,99.90
2018-12-14T04:35:18.975Z,99.90
2018-12-14T04:37:46.448Z,99.90
2018-12-14T04:40:13.879Z,99.90
2018-12-14T04:42:48.613Z,99.90
2018-12-14T04:45:11.217Z,99.90
2018-12-14T04:47:38.656Z,99.90
2018-12-14T04:50:06.276Z,99.90
2018-12-14T04:52:33.742Z,99.90
2018-12-14T04:55:01.187Z,99.90
2018-12-14T04:57:28.682Z,99.90
2018-12-14T04:59:56.292Z,99.90
2018-12-14T05:02:23.702Z,99.90
2018-12-14T05:04:51.131Z,99.90
2018-12-14T05:07:18.695Z,99.90
2018-12-14T05:09:46.113Z,99.90
2018-12-14T05:12:13.617Z,99.90
2018-12-14T05:14:41.842Z,99.90
2018-12-14T05:17:09.334Z,99.90
2018-12-14T05:19:36.764Z,99.90
2018-12-14T05:22:04.486Z,99.90
2018-12-14T05:24:31.950Z,99.90
2018-12-14T05:26:59.431Z,99.90
2018-12-14T05:29:26.850Z,99.90
2018-12-14T05:31:54.407Z,99.90
2018-12-14T05:34:23.152Z,99.90
2018-12-14T05:36:50.570Z,99.90
2018-12-14T05:39:18.195Z,99.90
2018-12-14T05:41:45.667Z,99.90
2018-12-14T05:44:13.074Z,99.90
2018-12-14T05:46:41.974Z,99.90
2018-12-14T05:49:09.605Z,99.90
2018-12-14T05:51:37.521Z,99.90
2018-12-14T05:54:04.924Z,99.90
2018-12-14T05:56:32.349Z,99.90
2018-12-14T05:58:59.805Z,99.90
2018-12-14T06:01:27.262Z,99.90
2018-12-14T06:03:54.962Z,99.90
2018-12-14T06:06:22.482Z,99.90
2018-12-14T06:08:49.910Z,99.90
2018-12-14T06:11:17.385Z,99.90
2018-12-14T06:13:44.849Z,99.90
2018-12-14T06:16:12.281Z,99.90
2018-12-14T06:18:39.705Z,99.90
2018-12-14T06:21:08.474Z,99.90
2018-12-14T06:23:35.916Z,99.90
2018-12-14T06:26:03.401Z,99.90
2018-12-14T06:28:30.937Z,99.90
2018-12-14T06:30:58.400Z,99.90
2018-12-14T06:33:25.824Z,99.90
2018-12-14T06:35:53.311Z,99.90
2018-12-14T06:38:20.756Z,99.90
2018-12-14T06:40:48.222Z,99.90
2018-12-14T06:43:15.709Z,99.90
2018-12-14T06:45:43.480Z,99.90
2018-12-14T06:48:10.933Z,99.90
2018-12-14T06:50:38.393Z,99.90
2018-12-14T06:53:06.067Z,99.90
2018-12-14T06:55:33.526Z,99.90
2018-12-14T06:58:00.942Z,99.90
2018-12-14T07:00:28.373Z,99.90
2018-12-14T07:02:55.823Z,99.90
2018-12-14T07:05:23.244Z,99.90
2018-12-14T07:07:50.679Z,99.90
2018-12-14T07:10:18.114Z,99.90
2018-12-14T07:12:45.586Z,99.90
2018-12-14T07:15:13.010Z,99.90
2018-12-14T07:17:40.505Z,99.90
2018-12-14T07:20:08.097Z,99.90
2018-12-14T07:22:35.547Z,99.90
2018-12-14T07:25:04.429Z,99.90
2018-12-14T07:27:31.997Z,99.90
2018-12-14T07:29:59.445Z,99.90
2018-12-14T07:32:26.881Z,99.90
2018-12-14T07:34:54.334Z,99.90
2018-12-14T07:37:21.899Z,99.90
2018-12-14T07:39:49.393Z,99.90
2018-12-14T07:42:16.922Z,99.90
2018-12-14T07:44:44.439Z,99.90
2018-12-14T07:47:12.165Z,99.90
2018-12-14T07:49:39.679Z,99.90
2018-12-14T07:52:07.195Z,99.90
2018-12-14T07:54:34.726Z,99.90
2018-12-14T07:57:02.171Z,99.90
2018-12-14T07:59:29.674Z,99.90
2018-12-14T08:01:57.198Z,99.90
2018-12-14T08:04:24.797Z,99.90
2018-12-14T08:06:52.352Z,99.90
2018-12-14T08:09:20.012Z,99.90
2018-12-14T08:11:47.535Z,99.90
2018-12-14T08:14:15.000Z,99.90
2018-12-14T08:16:42.430Z,99.90
2018-12-14T08:19:09.914Z,99.90
2018-12-14T08:21:37.397Z,99.90
2018-12-14T08:24:04.951Z,99.90
2018-12-14T08:26:33.847Z,99.90
2018-12-14T08:29:01.529Z,99.90
2018-12-14T08:31:29.208Z,99.90
2018-12-14T08:33:56.619Z,99.90
2018-12-14T08:36:24.042Z,99.90
2018-12-14T08:38:51.499Z,99.90
2018-12-14T08:41:18.922Z,99.90
2018-12-14T08:43:46.442Z,99.90
2018-12-14T08:46:13.894Z,99.70
2018-12-14T08:48:42.246Z,99.30
2018-12-14T08:51:09.724Z,99.30
2018-12-14T08:53:37.386Z,99.20
2018-12-14T08:56:04.849Z,99.00
2018-12-14T08:58:32.312Z,98.80
2018-12-14T09:00:59.761Z,98.90
2018-12-14T09:03:27.317Z,98.60
2018-12-14T09:05:54.737Z,98.30
2018-12-14T09:08:22.170Z,98.30
2018-12-14T09:10:49.599Z,98.10
2018-12-14T09:13:17.057Z,98.00
2018-12-14T09:15:44.507Z,98.00
2018-12-14T09:18:11.929Z,97.90
2018-12-14T09:20:39.421Z,97.80
2018-12-14T09:23:06.922Z,97.80
2018-12-14T09:25:34.368Z,97.50
2018-12-14T09:28:01.905Z,97.30
2018-12-14T09:30:29.462Z,97.20
2018-12-14T09:32:56.915Z,97.10
2018-12-14T09:35:24.335Z,97.20
2018-12-14T09:37:51.837Z,97.10
2018-12-14T09:40:19.400Z,96.40
2018-12-14T09:42:46.825Z,96.70
2018-12-14T09:45:14.317Z,96.30
2018-12-14T09:47:42.379Z,96.40
2018-12-14T09:50:09.881Z,96.20
2018-12-14T09:52:37.316Z,96.10
2018-12-14T09:55:05.162Z,96.40
2018-12-14T09:57:32.574Z,96.30
2018-12-14T10:00:00.074Z,95.90
2018-12-14T10:02:27.562Z,95.90
2018-12-14T10:04:55.097Z,95.90
2018-12-14T10:07:22.500Z,95.60
2018-12-14T10:09:50.014Z,95.70
2018-12-14T10:12:17.468Z,95.90
2018-12-14T10:14:44.930Z,95.70
2018-12-14T10:17:12.383Z,95.50
2018-12-14T10:19:39.842Z,95.80
2018-12-14T10:22:07.275Z,95.60
2018-12-14T10:24:34.762Z,95.50
2018-12-14T10:27:02.214Z,95.40
2018-12-14T10:29:29.670Z,95.40
2018-12-14T10:31:57.179Z,95.50
2018-12-14T10:34:24.697Z,95.40
2018-12-14T10:36:52.114Z,95.60
2018-12-14T10:39:21.060Z,95.20
2018-12-14T10:41:48.493Z,95.60
2018-12-14T10:44:15.932Z,95.20
2018-12-14T10:46:43.378Z,95.20
2018-12-14T10:49:10.807Z,95.20
2018-12-14T10:51:38.476Z,95.20
2018-12-14T10:54:05.950Z,95.30
2018-12-14T10:56:33.434Z,95.40
2018-12-14T10:59:00.905Z,95.20
2018-12-14T11:01:33.901Z,95.10
2018-12-14T11:04:01.335Z,94.80
2018-12-14T11:06:28.822Z,94.90
2018-12-14T11:08:56.369Z,94.70
2018-12-14T11:11:23.928Z,94.50
2018-12-14T11:13:51.366Z,95.00
2018-12-14T11:16:18.801Z,94.40
2018-12-14T11:18:46.314Z,94.80
2018-12-14T11:21:13.861Z,94.40
2018-12-14T11:23:41.284Z,94.70
2018-12-14T11:26:08.780Z,94.70
2018-12-14T11:28:36.231Z,94.50
2018-12-14T11:31:03.711Z,94.50
2018-12-14T11:33:32.027Z,94.80
2018-12-14T11:35:59.479Z,94.40
2018-12-14T11:38:26.948Z,94.70
2018-12-14T11:40:54.395Z,94.90
2018-12-14T11:43:21.846Z,94.90
2018-12-14T11:45:49.271Z,94.90
2018-12-14T11:48:16.722Z,94.80
2018-12-14T11:50:44.276Z,94.60
2018-12-14T11:53:13.629Z,94.60
2018-12-14T11:55:41.079Z,94.60
2018-12-14T11:58:08.500Z,94.80
2018-12-14T12:00:35.944Z,94.70
2018-12-14T12:03:03.410Z,94.40
2018-12-14T12:05:30.864Z,94.40
2018-12-14T12:07:58.505Z,93.90
2018-12-14T12:10:25.942Z,94.20
2018-12-14T12:12:53.443Z,94.30
2018-12-14T12:15:20.998Z,94.40
2018-12-14T12:17:49.604Z,94.00
2018-12-14T12:20:17.356Z,94.00
2018-12-14T12:22:44.797Z,94.30
2018-12-14T12:25:12.270Z,94.20
2018-12-14T12:27:39.685Z,94.10
2018-12-14T12:30:09.637Z,94.30
2018-12-14T12:32:37.165Z,94.00
2018-12-14T13:21:22.077Z,95.30
2018-12-14T13:23:49.507Z,95.40
2018-12-14T13:26:16.929Z,95.20
2018-12-14T13:28:44.352Z,95.00
2018-12-14T13:31:11.789Z,95.30
2018-12-14T13:33:39.267Z,95.20
2018-12-14T13:36:06.690Z,95.10
2018-12-14T13:38:34.156Z,95.00
2018-12-14T13:41:01.583Z,94.70
2018-12-14T13:43:29.005Z,94.70
2018-12-14T13:45:56.482Z,95.10
2018-12-14T13:48:23.978Z,95.40
2018-12-14T13:50:51.567Z,94.70
2018-12-14T13:53:19.130Z,94.80
2018-12-14T13:55:46.585Z,94.80
2018-12-14T13:58:14.037Z,94.60
2018-12-14T14:00:41.534Z,94.40
2018-12-14T14:03:10.309Z,94.60
2018-12-14T14:05:37.959Z,94.00
2018-12-14T14:08:05.409Z,94.30
2018-12-14T14:10:32.869Z,94.30
2018-12-14T14:13:00.294Z,94.50
2018-12-14T14:15:27.768Z,94.40
2018-12-14T14:17:55.278Z,94.90
2018-12-14T14:20:22.724Z,94.60
2018-12-14T14:22:50.162Z,94.30
2018-12-14T14:25:17.843Z,94.00
2018-12-14T14:27:45.331Z,94.00
2018-12-14T14:30:12.749Z,94.20
2018-12-14T14:32:40.169Z,94.20
2018-12-14T14:35:07.654Z,94.40
2018-12-14T14:37:35.140Z,94.20
2018-12-14T14:40:02.613Z,94.20
2018-12-14T14:42:30.038Z,93.90
2018-12-14T14:44:59.874Z,94.00
2018-12-14T14:47:26.897Z,93.80
2018-12-14T14:49:54.345Z,94.20
2018-12-14T14:52:21.870Z,94.00
2018-12-14T14:54:49.519Z,93.90
2018-12-14T14:57:17.018Z,93.90
2018-12-14T14:59:44.501Z,94.20
2018-12-14T15:02:11.954Z,93.70
2018-12-14T15:04:39.402Z,93.90
2018-12-14T15:07:06.893Z,94.00
2018-12-14T15:09:34.310Z,93.90
2018-12-14T15:12:01.822Z,93.90
2018-12-14T15:14:29.265Z,93.80
2018-12-14T15:16:56.790Z,93.60
2018-12-14T15:19:24.243Z,93.80
2018-12-14T15:21:51.703Z,93.80
2018-12-14T15:24:19.131Z,93.70
2018-12-14T15:26:46.557Z,93.70
2018-12-14T15:29:14.080Z,93.90
2018-12-14T15:31:43.031Z,93.90
2018-12-14T15:34:14.265Z,93.80
2018-12-14T15:36:39.857Z,94.00
2018-12-14T15:39:07.386Z,93.80
2018-12-14T15:41:34.816Z,93.60
2018-12-14T15:44:02.301Z,93.90
2018-12-14T15:46:29.768Z,93.60
2018-12-14T15:48:57.241Z,93.80
2018-12-14T15:51:24.795Z,93.60
2018-12-14T15:53:52.219Z,93.60
2018-12-14T15:56:19.669Z,93.80
2018-12-14T15:58:47.088Z,93.80
2018-12-14T16:01:14.529Z,93.60
2018-12-14T16:03:42.913Z,93.50
2018-12-14T16:06:10.327Z,93.50
2018-12-14T16:08:37.781Z,93.60
2018-12-14T16:11:05.290Z,93.70
2018-12-14T16:13:32.815Z,93.80
2018-12-14T16:16:00.372Z,93.50
2018-12-14T16:18:27.964Z,93.60
2018-12-14T16:20:55.488Z,93.50
2018-12-14T16:23:22.996Z,93.40
2018-12-14T16:25:50.417Z,93.60
2018-12-14T16:28:18.066Z,93.50
2018-12-14T16:30:45.502Z,93.60
2018-12-14T16:33:12.934Z,93.60
2018-12-14T16:35:40.358Z,93.60
2018-12-14T16:38:07.807Z,93.80
2018-12-14T16:40:35.265Z,93.60
2018-12-14T16:43:02.725Z,93.30
2018-12-14T16:45:30.285Z,93.40
2018-12-14T16:47:57.796Z,93.40
2018-12-14T16:50:25.277Z,93.30
2018-12-14T16:52:52.758Z,93.30
2018-12-14T16:55:20.213Z,93.10
2018-12-14T16:57:47.668Z,93.30
2018-12-14T17:00:15.123Z,93.30
2018-12-14T17:02:43.261Z,93.30
2018-12-14T17:05:10.729Z,93.60
2018-12-14T17:07:38.218Z,93.60
2018-12-14T17:10:05.794Z,93.80
2018-12-14T17:12:33.266Z,93.50
2018-12-14T17:15:00.735Z,93.60
2018-12-14T17:17:28.160Z,93.50
2018-12-14T17:19:55.626Z,93.60
2018-12-14T17:22:23.169Z,93.50
2018-12-14T17:24:50.604Z,93.40
2018-12-14T17:27:18.053Z,93.30
2018-12-14T17:29:45.719Z,93.10
2018-12-14T17:32:13.206Z,93.10
2018-12-14T17:34:40.648Z,92.80
2018-12-14T17:37:08.103Z,92.60
2018-12-14T17:39:35.562Z,92.60
2018-12-14T17:42:03.038Z,92.50
2018-12-14T17:44:30.602Z,91.70
2018-12-14T17:46:58.020Z,91.90
2018-12-14T17:49:25.530Z,91.60
2018-12-14T17:51:53.274Z,91.10
2018-12-14T17:54:20.738Z,91.10
2018-12-14T17:56:48.167Z,90.90
2018-12-14T17:59:15.661Z,90.60
2018-12-14T18:01:43.351Z,90.30
2018-12-14T18:04:10.871Z,90.00
2018-12-14T18:06:38.296Z,89.60
2018-12-14T18:09:05.758Z,89.90
2018-12-14T18:11:33.191Z,89.20
2018-12-14T18:14:00.702Z,88.40
2018-12-14T18:16:28.181Z,88.40
2018-12-14T18:18:55.640Z,88.70
2018-12-14T18:21:23.099Z,87.70
2018-12-14T18:23:50.537Z,87.00
2018-12-14T18:26:18.026Z,88.10
2018-12-14T18:28:45.477Z,87.50
2018-12-14T18:31:12.907Z,88.60
2018-12-14T18:33:40.340Z,86.70
2018-12-14T18:36:07.774Z,83.70
2018-12-14T18:38:35.214Z,84.50
2018-12-14T18:41:02.639Z,85.00
2018-12-14T18:43:30.070Z,84.80
2018-12-14T18:45:57.547Z,84.40
2018-12-14T18:48:24.974Z,84.40
2018-12-14T18:50:52.462Z,81.50
2018-12-14T18:53:19.885Z,81.90
2018-12-14T18:55:47.382Z,80.40
2018-12-14T18:58:14.918Z,81.40
2018-12-14T19:00:43.322Z,81.20
2018-12-14T19:03:10.801Z,80.20
2018-12-14T19:05:38.237Z,80.50
2018-12-14T19:08:05.699Z,81.80
2018-12-14T19:10:33.142Z,82.20
2018-12-14T19:13:00.614Z,80.50
2018-12-14T19:15:28.061Z,80.00
2018-12-14T19:17:55.487Z,79.80
2018-12-14T19:20:22.981Z,79.50
2018-12-14T19:22:50.441Z,79.50
2018-12-14T19:25:18.003Z,79.30
2018-12-14T19:27:45.506Z,79.10
2018-12-14T19:30:13.003Z,78.20
2018-12-14T19:32:40.478Z,78.00
2018-12-14T19:35:07.981Z,76.80
2018-12-14T19:37:35.493Z,76.50
2018-12-14T19:40:03.865Z,77.00
2018-12-14T19:42:31.333Z,77.20
2018-12-14T19:44:58.763Z,77.50
2018-12-14T19:47:26.230Z,76.90
2018-12-14T19:49:53.674Z,77.10
2018-12-14T19:52:21.129Z,76.80
2018-12-14T19:54:48.605Z,77.00
2018-12-14T19:57:16.023Z,76.80
2018-12-14T19:59:43.553Z,78.20
2018-12-14T20:02:11.047Z,77.00
2018-12-14T20:04:38.553Z,77.00
2018-12-14T20:07:06.097Z,76.50
2018-12-14T20:09:33.578Z,77.60
2018-12-14T20:12:01.050Z,77.70
2018-12-14T20:14:28.470Z,76.60
2018-12-14T20:16:55.917Z,76.60
2018-12-14T20:19:23.352Z,76.80
2018-12-14T20:21:50.863Z,77.50
2018-12-14T20:24:18.290Z,77.20
2018-12-14T20:26:45.720Z,77.20
2018-12-14T20:29:13.238Z,77.50
2018-12-14T20:31:40.795Z,78.80
2018-12-14T20:34:08.249Z,77.30
2018-12-14T20:36:35.694Z,76.30
2018-12-14T20:39:05.370Z,75.80
2018-12-14T20:41:32.823Z,76.70
2018-12-14T20:44:00.286Z,76.70
2018-12-14T20:46:27.723Z,76.80
2018-12-14T20:48:55.190Z,76.40
2018-12-14T20:51:22.616Z,76.30
2018-12-14T20:53:51.484Z,75.30
2018-12-14T20:56:19.054Z,75.60
2018-12-14T20:58:46.480Z,75.60
2018-12-14T21:01:13.986Z,76.00
2018-12-14T21:03:41.410Z,75.00
2018-12-14T21:06:08.894Z,75.60
2018-12-14T21:08:36.353Z,75.00
2018-12-14T21:11:04.379Z,75.10
2018-12-14T21:13:31.841Z,75.10
2018-12-14T21:15:59.389Z,75.00
2018-12-14T21:18:26.834Z,75.30
2018-12-14T21:20:54.431Z,75.40
2018-12-14T21:23:21.911Z,74.70
2018-12-14T21:25:49.446Z,74.40
2018-12-14T21:28:16.937Z,73.60
2018-12-14T21:30:44.356Z,73.50
2018-12-14T21:33:11.853Z,74.20
2018-12-14T21:35:39.289Z,73.70
2018-12-14T21:38:06.711Z,73.20
2018-12-14T21:40:34.166Z,74.00
2018-12-14T21:43:01.585Z,73.70
2018-12-14T21:45:29.035Z,74.10
2018-12-14T21:47:56.495Z,73.70
2018-12-14T21:50:23.919Z,73.30
2018-12-14T21:52:51.333Z,73.70
2018-12-14T21:55:18.835Z,72.60
2018-12-14T21:57:46.583Z,71.80
2018-12-14T22:00:14.704Z,72.40
2018-12-14T22:02:42.123Z,72.00
2018-12-14T22:05:09.618Z,73.30
2018-12-14T22:07:37.170Z,74.10
2018-12-14T22:10:06.574Z,74.00
2018-12-14T22:12:33.990Z,74.70
2018-12-14T22:15:01.442Z,74.50
2018-12-14T22:17:28.898Z,73.10
2018-12-14T22:19:56.401Z,74.20
2018-12-14T22:22:23.863Z,75.30
2018-12-14T22:24:51.300Z,75.10
2018-12-14T22:27:18.773Z,76.00
2018-12-14T22:29:46.246Z,76.70
2018-12-14T22:32:13.774Z,75.40
2018-12-14T22:34:41.266Z,75.60
2018-12-14T22:37:08.721Z,75.70
2018-12-14T22:39:36.381Z,75.80
2018-12-14T22:42:03.882Z,73.70
2018-12-14T22:44:31.388Z,74.90
2018-12-14T22:46:58.926Z,75.20
2018-12-14T22:49:26.320Z,74.70
2018-12-14T22:51:53.805Z,75.70
2018-12-14T22:54:21.320Z,75.50
2018-12-14T22:56:48.761Z,75.50
2018-12-14T22:59:16.236Z,74.80
2018-12-14T23:01:44.002Z,75.90
2018-12-14T23:04:11.460Z,77.10
2018-12-14T23:06:38.888Z,76.00
2018-12-14T23:09:06.858Z,75.20
2018-12-14T23:11:34.735Z,75.70
2018-12-14T23:14:02.315Z,75.30
2018-12-14T23:16:29.783Z,75.40
2018-12-14T23:18:57.207Z,74.60
2018-12-14T23:21:24.654Z,74.70
2018-12-14T23:23:52.082Z,74.10
2018-12-14T23:26:19.603Z,75.40
2018-12-14T23:28:47.041Z,75.80
2018-12-14T23:31:14.530Z,75.50
2018-12-14T23:33:41.958Z,75.70
2018-12-14T23:36:09.386Z,76.00
2018-12-14T23:38:36.816Z,75.50
2018-12-14T23:41:04.349Z,76.00
2018-12-14T23:43:31.769Z,75.50
2018-12-14T23:45:59.278Z,75.80
2018-12-14T23:48:26.721Z,75.50
2018-12-14T23:50:54.178Z,75.50
2018-12-14T23:53:21.601Z,75.20
2018-12-14T23:55:49.123Z,75.30
2018-12-14T23:58:16.554Z,75.10
